You are not logged in, Click here to log in
Pinto Martins International Airport / SBFZ Fortaleza
ICAO: SBFZ Country: Fortaleza
Latitude: -3.77628 Longitude: -38.5326
Total Arrivals: 2 Total Departures: 2
Latest Arrival: FS9016 (TNCM-SBFZ)Arthur. Kung Latest Departure: FS9017 (SBFZ-SBSV)Arthur. Kung
Scenery:
METAR : SBFZ 240600Z 09012KT 9999 SCT017 27/24 Q1010

Pinto Martins International Airport

You are accessing this site from IP address 34.201.9.19. Virtual Airline. CMS by phpVMS.Website designed by Zumeweb and edited by Theo Bearman.
There is 0 User(s) Online: | and 16 Guest(s) Online.
All information on this site is for fight simulation purposes only. This site is for flight logging for pilots of Virtual Airline&模擬飛行論壇 FlySim only.